createdAt,value
2018-03-14T00:00:34.453Z,62.10
2018-03-14T00:03:01.927Z,62.00
2018-03-14T00:05:29.371Z,63.20
2018-03-14T00:07:56.828Z,62.60
2018-03-14T00:10:24.288Z,62.50
2018-03-14T00:12:51.750Z,62.30
2018-03-14T00:15:19.206Z,61.90
2018-03-14T00:17:46.662Z,61.50
2018-03-14T00:20:14.118Z,61.10
2018-03-14T00:22:41.581Z,60.80
2018-03-14T00:25:09.034Z,61.10
2018-03-14T00:27:36.503Z,61.50
2018-03-14T00:30:04.129Z,61.90
2018-03-14T00:32:32.411Z,61.80
2018-03-14T00:34:59.864Z,61.80
2018-03-14T00:37:27.309Z,62.00
2018-03-14T00:39:54.763Z,63.30
2018-03-14T00:42:22.212Z,73.10
2018-03-14T00:44:49.656Z,72.40
2018-03-14T00:47:17.154Z,73.50
2018-03-14T00:49:44.610Z,65.90
2018-03-14T00:52:12.048Z,70.00
2018-03-14T00:54:40.264Z,66.10
2018-03-14T00:57:07.716Z,66.90
2018-03-14T00:59:35.180Z,66.90
2018-03-14T01:02:02.649Z,67.40
2018-03-14T01:04:30.094Z,67.80
2018-03-14T01:06:57.538Z,68.60
2018-03-14T01:09:24.989Z,68.20
2018-03-14T01:11:52.441Z,68.30
2018-03-14T01:14:19.884Z,68.30
2018-03-14T01:16:47.378Z,68.40
2018-03-14T01:19:14.827Z,68.10
2018-03-14T01:21:42.271Z,69.30
2018-03-14T01:24:09.718Z,69.10
2018-03-14T01:26:37.162Z,68.90
2018-03-14T01:29:04.609Z,68.80
2018-03-14T01:31:32.071Z,69.60
2018-03-14T01:33:59.539Z,69.60
2018-03-14T01:36:27.027Z,70.80
2018-03-14T01:38:54.485Z,72.00
2018-03-14T01:41:22.534Z,72.50
2018-03-14T01:43:49.985Z,79.20
2018-03-14T01:46:17.452Z,72.50
2018-03-14T01:48:44.914Z,72.50
2018-03-14T01:51:12.374Z,72.40
2018-03-14T01:53:39.830Z,73.90
2018-03-14T01:56:07.667Z,71.60
2018-03-14T01:58:35.117Z,72.20
2018-03-14T02:01:02.565Z,72.30
2018-03-14T02:03:30.036Z,72.00
2018-03-14T02:05:57.491Z,72.30
2018-03-14T02:08:24.964Z,72.60
2018-03-14T02:10:52.418Z,72.90
2018-03-14T02:13:19.873Z,72.60
2018-03-14T02:15:47.329Z,72.30
2018-03-14T02:18:14.781Z,73.20
2018-03-14T02:20:42.223Z,72.70
2018-03-14T02:23:09.680Z,72.40
2018-03-14T02:25:37.125Z,72.50
2018-03-14T02:28:04.596Z,73.00
2018-03-14T02:30:32.055Z,73.10
2018-03-14T02:32:59.500Z,73.00
2018-03-14T02:35:26.955Z,73.00
2018-03-14T02:37:54.408Z,73.20
2018-03-14T02:40:21.857Z,73.10
2018-03-14T02:42:49.301Z,71.70
2018-03-14T02:45:17.523Z,72.60
2018-03-14T02:47:44.969Z,71.40
2018-03-14T02:50:12.423Z,71.80
2018-03-14T02:52:39.883Z,72.00
2018-03-14T02:55:07.354Z,76.60
2018-03-14T02:57:34.807Z,78.40
2018-03-14T03:00:02.256Z,72.40
2018-03-14T03:02:30.476Z,72.40
2018-03-14T03:04:58.711Z,73.10
2018-03-14T03:07:26.153Z,73.00
2018-03-14T03:09:53.614Z,72.40
2018-03-14T03:12:21.068Z,72.50
2018-03-14T03:14:48.539Z,72.10
2018-03-14T03:17:15.997Z,71.40
2018-03-14T03:19:43.444Z,71.50
2018-03-14T03:22:10.887Z,71.20
2018-03-14T03:24:38.341Z,71.00
2018-03-14T03:27:05.806Z,71.00
2018-03-14T03:29:33.261Z,71.70
2018-03-14T03:32:00.717Z,70.90
2018-03-14T03:34:28.223Z,70.60
2018-03-14T03:36:55.671Z,70.70
2018-03-14T03:39:23.135Z,70.20
2018-03-14T03:41:50.585Z,69.80
2018-03-14T03:44:18.037Z,69.40
2018-03-14T03:46:45.495Z,70.20
2018-03-14T03:49:12.946Z,71.80
2018-03-14T03:51:40.398Z,70.70
2018-03-14T03:54:08.406Z,70.50
2018-03-14T03:56:36.625Z,71.10
2018-03-14T03:59:04.086Z,69.90
2018-03-14T04:01:31.539Z,70.10
2018-03-14T04:03:58.984Z,70.80
2018-03-14T04:06:26.438Z,71.90
2018-03-14T04:08:53.896Z,72.60
2018-03-14T04:11:21.350Z,72.60
2018-03-14T04:13:48.794Z,72.80
2018-03-14T04:16:16.259Z,72.60
2018-03-14T04:18:43.697Z,72.10
2018-03-14T04:21:11.142Z,72.00
2018-03-14T04:23:39.361Z,71.00
2018-03-14T04:26:06.809Z,70.90
2018-03-14T04:28:35.014Z,71.80
2018-03-14T04:31:02.487Z,71.70
2018-03-14T04:33:29.920Z,71.00
2018-03-14T04:35:57.366Z,72.10
2018-03-14T04:38:24.822Z,72.70
2018-03-14T04:40:52.291Z,71.20
2018-03-14T04:43:19.731Z,70.70
2018-03-14T04:45:47.184Z,70.70
2018-03-14T04:48:14.635Z,69.70
2018-03-14T04:50:42.082Z,69.90
2018-03-14T04:53:09.533Z,76.20
2018-03-14T04:55:37.376Z,69.60
2018-03-14T04:58:05.603Z,69.50
2018-03-14T05:00:33.060Z,69.50
2018-03-14T05:03:00.521Z,70.00
2018-03-14T05:05:28.754Z,69.80
2018-03-14T05:07:56.970Z,70.70
2018-03-14T05:10:24.419Z,70.60
2018-03-14T05:12:51.865Z,70.40
2018-03-14T05:15:19.321Z,70.90
2018-03-14T05:17:46.785Z,72.00
2018-03-14T05:20:14.231Z,71.80
2018-03-14T05:22:41.683Z,72.50
2018-03-14T05:25:09.142Z,72.90
2018-03-14T05:27:36.671Z,73.00
2018-03-14T05:30:04.885Z,73.30
2018-03-14T05:32:32.340Z,73.30
2018-03-14T05:34:59.795Z,73.60
2018-03-14T05:37:27.260Z,73.60
2018-03-14T05:39:54.730Z,73.60
2018-03-14T05:42:22.215Z,73.40
2018-03-14T05:44:49.673Z,74.00
2018-03-14T05:47:17.135Z,73.30
2018-03-14T05:49:45.366Z,74.30
2018-03-14T05:52:12.826Z,78.30
2018-03-14T05:54:40.310Z,72.60
2018-03-14T05:57:07.744Z,72.80
2018-03-14T05:59:35.206Z,73.50
2018-03-14T06:02:02.655Z,74.10
2018-03-14T06:04:30.114Z,74.10
2018-03-14T06:06:57.566Z,73.60
2018-03-14T06:09:25.034Z,74.30
2018-03-14T06:11:53.328Z,73.80
2018-03-14T06:14:20.782Z,74.50
2018-03-14T06:16:48.239Z,74.60
2018-03-14T06:19:15.679Z,74.20
2018-03-14T06:21:43.126Z,73.20
2018-03-14T06:24:10.570Z,73.90
2018-03-14T06:26:38.043Z,73.80
2018-03-14T06:29:05.493Z,73.80
2018-03-14T06:31:32.946Z,73.40
2018-03-14T06:34:00.403Z,73.40
2018-03-14T06:36:27.854Z,73.20
2018-03-14T06:38:55.297Z,73.30
2018-03-14T06:41:22.760Z,73.80
2018-03-14T06:43:50.272Z,73.60
2018-03-14T06:46:17.729Z,73.10
2018-03-14T06:48:45.172Z,73.20
2018-03-14T06:51:12.622Z,72.60
2018-03-14T06:53:40.065Z,72.40
2018-03-14T06:56:07.510Z,72.30
2018-03-14T06:58:46.794Z,72.80
2018-03-14T07:01:26.631Z,72.80
2018-03-14T07:04:06.090Z,73.50
2018-03-14T07:06:34.314Z,72.90
2018-03-14T07:09:02.531Z,73.20
2018-03-14T07:11:30.758Z,72.20
2018-03-14T07:13:58.213Z,72.20
2018-03-14T07:16:25.694Z,72.60
2018-03-14T07:18:53.138Z,70.90
2018-03-14T07:21:20.639Z,69.40
2018-03-14T07:23:48.848Z,68.70
2018-03-14T07:26:16.310Z,68.60
2018-03-14T07:28:43.941Z,69.20
2018-03-14T07:31:11.401Z,69.00
2018-03-14T07:33:38.852Z,68.80
2018-03-14T07:36:06.358Z,67.50
2018-03-14T07:38:33.806Z,67.70
2018-03-14T07:41:01.278Z,66.60
2018-03-14T07:43:28.724Z,66.20
2018-03-14T07:45:56.184Z,66.80
2018-03-14T07:48:23.638Z,65.50
2018-03-14T07:50:51.077Z,66.40
2018-03-14T07:53:18.525Z,75.10
2018-03-14T07:55:45.972Z,87.50
2018-03-14T07:58:13.431Z,63.10
2018-03-14T08:00:40.876Z,68.40
2018-03-14T08:03:08.335Z,64.70
2018-03-14T08:05:35.789Z,65.20
2018-03-14T08:08:03.238Z,63.90
2018-03-14T08:10:31.444Z,64.40
2018-03-14T08:12:58.897Z,64.30
2018-03-14T08:15:26.351Z,63.80
2018-03-14T08:17:53.784Z,63.00
2018-03-14T08:20:21.259Z,66.20
2018-03-14T08:22:49.446Z,62.70
2018-03-14T08:25:17.510Z,62.70
2018-03-14T08:27:45.000Z,61.80
2018-03-14T08:30:12.412Z,62.90
2018-03-14T08:32:39.865Z,64.60
2018-03-14T08:35:07.311Z,63.80
2018-03-14T08:37:35.524Z,64.20
2018-03-14T08:40:02.967Z,64.10
2018-03-14T08:42:30.430Z,65.20
2018-03-14T08:44:57.879Z,65.20
2018-03-14T08:47:25.340Z,65.90
2018-03-14T08:49:52.796Z,67.50
2018-03-14T08:52:20.250Z,66.10
2018-03-14T08:54:47.707Z,67.20
2018-03-14T08:57:15.163Z,66.40
2018-03-14T08:59:42.605Z,67.30
2018-03-14T09:02:10.062Z,67.60
2018-03-14T09:04:37.520Z,68.30
2018-03-14T09:07:04.983Z,68.90
2018-03-14T09:09:32.443Z,69.10
2018-03-14T09:11:59.890Z,68.70
2018-03-14T09:14:27.351Z,66.70
2018-03-14T09:16:55.246Z,66.10
2018-03-14T09:19:22.724Z,64.80
2018-03-14T09:21:50.172Z,65.00
2018-03-14T09:24:17.640Z,62.80
2018-03-14T09:26:45.107Z,63.50
2018-03-14T09:29:12.563Z,63.30
2018-03-14T09:31:40.013Z,62.40
2018-03-14T09:34:07.475Z,62.80
2018-03-14T09:36:34.932Z,63.00
2018-03-14T09:39:02.383Z,61.50
2018-03-14T09:41:29.857Z,60.10
2018-03-14T09:43:58.079Z,63.80
2018-03-14T09:46:25.551Z,63.80
2018-03-14T09:48:53.006Z,62.70
2018-03-14T09:51:20.479Z,59.50
2018-03-14T09:53:47.941Z,68.00
2018-03-14T09:56:15.389Z,59.80
2018-03-14T09:58:42.841Z,60.20
2018-03-14T10:01:10.303Z,59.30
2018-03-14T10:03:38.536Z,59.80
2018-03-14T10:06:05.999Z,60.50
2018-03-14T10:08:33.884Z,61.20
2018-03-14T10:11:01.365Z,60.00
2018-03-14T10:13:28.825Z,60.60
2018-03-14T10:15:57.068Z,61.70
2018-03-14T10:18:25.288Z,61.40
2018-03-14T10:20:53.510Z,61.80
2018-03-14T10:23:20.976Z,61.70
2018-03-14T10:25:48.496Z,60.10
2018-03-14T10:28:15.868Z,60.30
2018-03-14T10:30:43.315Z,63.80
2018-03-14T10:33:10.779Z,59.60
2018-03-14T10:35:38.233Z,58.30
2018-03-14T10:38:05.680Z,57.70
2018-03-14T10:40:33.158Z,57.30
2018-03-14T10:43:00.621Z,56.60
2018-03-14T10:45:28.064Z,55.20
2018-03-14T10:47:55.525Z,54.90
2018-03-14T10:50:22.987Z,54.70
2018-03-14T10:52:50.438Z,54.50
2018-03-14T10:55:17.894Z,55.20
2018-03-14T10:57:45.356Z,55.80
2018-03-14T11:00:18.538Z,56.10
2018-03-14T11:02:51.603Z,56.50
2018-03-14T11:05:19.840Z,57.20
2018-03-14T11:07:48.195Z,56.60
2018-03-14T11:10:15.579Z,60.10
2018-03-14T11:12:43.095Z,56.50
2018-03-14T11:15:10.541Z,56.70
2018-03-14T11:17:38.035Z,56.90
2018-03-14T11:20:05.482Z,56.10
2018-03-14T11:22:32.944Z,55.70
2018-03-14T11:25:00.383Z,56.00
2018-03-14T11:27:27.858Z,54.80
2018-03-14T11:29:55.310Z,54.90
2018-03-14T11:32:22.770Z,54.20
2018-03-14T11:34:50.225Z,54.30
2018-03-14T11:37:17.684Z,53.70
2018-03-14T11:39:45.146Z,54.70
2018-03-14T11:42:12.609Z,54.60
2018-03-14T11:44:40.065Z,54.20
2018-03-14T11:47:07.497Z,54.20
2018-03-14T11:49:34.954Z,53.10
2018-03-14T11:52:02.388Z,53.80
2018-03-14T11:54:29.848Z,52.70
2018-03-14T11:56:57.293Z,51.90
2018-03-14T11:59:24.754Z,51.90
2018-03-14T12:01:52.208Z,51.60
2018-03-14T12:04:19.702Z,52.10
2018-03-14T12:06:47.146Z,50.60
2018-03-14T12:09:14.601Z,51.90
2018-03-14T12:11:42.066Z,51.50
2018-03-14T12:14:09.517Z,50.90
2018-03-14T12:16:36.976Z,50.80
2018-03-14T12:19:04.442Z,50.70
2018-03-14T12:21:31.881Z,50.10
2018-03-14T12:23:59.329Z,49.80
2018-03-14T12:26:26.789Z,50.20
2018-03-14T12:28:54.243Z,50.20
2018-03-14T12:31:21.689Z,50.10
2018-03-14T12:33:49.137Z,50.80
2018-03-14T12:36:16.586Z,50.60
2018-03-14T12:38:44.798Z,49.30
2018-03-14T12:41:12.238Z,49.30
2018-03-14T12:43:39.696Z,48.50
2018-03-14T12:46:07.142Z,49.50
2018-03-14T12:48:34.592Z,49.30
2018-03-14T12:51:02.812Z,47.30
2018-03-14T12:53:31.047Z,48.80
2018-03-14T12:55:59.241Z,50.00
2018-03-14T12:58:26.698Z,50.70
2018-03-14T13:00:54.152Z,49.70
2018-03-14T13:03:21.607Z,49.90
2018-03-14T13:05:49.822Z,50.50
2018-03-14T13:08:17.288Z,50.10
2018-03-14T13:10:44.738Z,50.10
2018-03-14T13:13:12.202Z,50.50
2018-03-14T13:15:39.659Z,50.50
2018-03-14T13:18:07.160Z,49.90
2018-03-14T13:20:34.561Z,50.20
2018-03-14T13:23:02.050Z,50.40
2018-03-14T13:25:30.295Z,50.10
2018-03-14T13:27:57.763Z,50.10
2018-03-14T13:30:25.200Z,50.90
2018-03-14T13:32:52.713Z,49.00
2018-03-14T13:35:20.135Z,49.10
2018-03-14T13:37:47.582Z,48.40
2018-03-14T13:40:15.030Z,47.90
2018-03-14T13:42:42.478Z,47.80
2018-03-14T13:45:09.932Z,47.50
2018-03-14T13:47:37.369Z,47.30
2018-03-14T13:50:04.823Z,48.10
2018-03-14T13:52:32.277Z,50.00
2018-03-14T13:54:59.731Z,47.20
2018-03-14T13:57:27.189Z,46.40
2018-03-14T13:59:54.651Z,46.70
2018-03-14T14:02:22.096Z,46.00
2018-03-14T14:04:49.566Z,46.20
2018-03-14T14:07:17.010Z,46.10
2018-03-14T14:09:45.606Z,47.80
2018-03-14T14:12:13.052Z,49.60
2018-03-14T14:14:40.512Z,47.30
2018-03-14T14:17:07.980Z,46.60
2018-03-14T14:19:35.429Z,47.10
2018-03-14T14:22:02.886Z,47.20
2018-03-14T14:24:30.354Z,47.00
2018-03-14T14:26:57.808Z,46.30
2018-03-14T14:29:25.305Z,46.50
2018-03-14T14:31:52.729Z,46.20
2018-03-14T14:34:20.195Z,46.60
2018-03-14T14:36:47.636Z,45.60
2018-03-14T14:39:15.093Z,45.00
2018-03-14T14:41:43.314Z,44.00
2018-03-14T14:44:11.548Z,43.80
2018-03-14T14:46:39.011Z,43.80
2018-03-14T14:49:06.464Z,44.50
2018-03-14T14:51:33.916Z,44.10
2018-03-14T14:54:01.368Z,43.30
2018-03-14T14:56:28.813Z,43.80
2018-03-14T14:58:56.245Z,43.70
2018-03-14T15:01:23.708Z,43.50
2018-03-14T15:03:51.153Z,43.90
2018-03-14T15:06:19.375Z,43.20
2018-03-14T15:08:46.827Z,42.80
2018-03-14T15:11:14.669Z,43.10
2018-03-14T15:13:42.138Z,43.60
2018-03-14T15:16:09.573Z,43.30
2018-03-14T15:18:37.047Z,43.00
2018-03-14T15:21:04.536Z,42.60
2018-03-14T15:23:31.981Z,42.30
2018-03-14T15:25:59.433Z,42.70
2018-03-14T15:28:26.893Z,44.60
2018-03-14T15:30:54.350Z,44.80
2018-03-14T15:33:21.807Z,45.60
2018-03-14T15:35:49.267Z,45.90
2018-03-14T15:38:16.714Z,45.90
2018-03-14T15:40:44.238Z,46.40
2018-03-14T15:43:11.625Z,46.20
2018-03-14T15:45:39.083Z,46.40
2018-03-14T15:48:06.538Z,46.20
2018-03-14T15:50:34.003Z,46.50
2018-03-14T15:53:01.448Z,46.70
2018-03-14T15:55:28.901Z,46.30
2018-03-14T15:57:56.355Z,46.10
2018-03-14T16:00:23.793Z,45.60
2018-03-14T16:02:51.266Z,46.30
2018-03-14T16:05:18.702Z,46.30
2018-03-14T16:07:46.145Z,46.80
2018-03-14T16:10:14.357Z,47.60
2018-03-14T16:12:42.583Z,47.50
2018-03-14T16:15:10.823Z,47.60
2018-03-14T16:17:38.277Z,48.00
2018-03-14T16:20:05.735Z,48.10
2018-03-14T16:22:33.196Z,48.00
2018-03-14T16:25:00.650Z,48.10
2018-03-14T16:27:28.109Z,48.30
2018-03-14T16:29:55.570Z,48.20
2018-03-14T16:32:23.023Z,48.20
2018-03-14T16:34:50.476Z,48.30
2018-03-14T16:37:17.932Z,48.30
2018-03-14T16:39:45.381Z,48.20
2018-03-14T16:42:12.836Z,48.10
2018-03-14T16:44:40.310Z,48.30
2018-03-14T16:47:07.741Z,48.30
2018-03-14T16:49:35.198Z,48.40
2018-03-14T16:52:02.640Z,48.70
2018-03-14T16:54:30.099Z,48.80
2018-03-14T16:56:57.548Z,48.80
2018-03-14T16:59:25.009Z,48.80
2018-03-14T17:01:52.467Z,48.80
2018-03-14T17:04:19.932Z,49.30
2018-03-14T17:06:47.384Z,49.70
2018-03-14T17:09:15.597Z,50.10
2018-03-14T17:11:43.089Z,50.90
2018-03-14T17:14:11.303Z,51.60
2018-03-14T17:16:39.210Z,51.20
2018-03-14T17:19:06.651Z,51.60
2018-03-14T17:21:34.101Z,52.00
2018-03-14T17:24:02.328Z,52.40
2018-03-14T17:26:30.627Z,52.50
2018-03-14T17:28:58.019Z,52.50
2018-03-14T17:31:25.468Z,52.70
2018-03-14T17:33:52.932Z,52.80
2018-03-14T17:36:20.401Z,53.10
2018-03-14T17:38:47.922Z,53.50
2018-03-14T17:41:15.370Z,53.80
2018-03-14T17:43:42.820Z,53.80
2018-03-14T17:46:10.274Z,53.90
2018-03-14T17:48:37.733Z,54.10
2018-03-14T17:51:05.200Z,54.30
2018-03-14T17:53:32.664Z,54.80
2018-03-14T17:56:00.113Z,55.30
2018-03-14T17:58:27.579Z,55.60
2018-03-14T18:00:55.032Z,55.70
2018-03-14T18:03:22.498Z,55.80
2018-03-14T18:05:49.957Z,56.00
2018-03-14T18:08:17.419Z,57.10
2018-03-14T18:10:44.873Z,57.80
2018-03-14T18:13:12.739Z,57.60
2018-03-14T18:15:41.713Z,58.30
2018-03-14T18:18:09.935Z,58.00
2018-03-14T18:20:38.161Z,59.00
2018-03-14T18:23:05.618Z,58.90
2018-03-14T18:25:33.072Z,59.10
2018-03-14T18:28:00.539Z,59.20
2018-03-14T18:30:27.989Z,59.60
2018-03-14T18:32:55.451Z,59.80
2018-03-14T18:35:23.001Z,59.70
2018-03-14T18:37:50.451Z,60.30
2018-03-14T18:40:17.906Z,60.80
2018-03-14T18:42:45.366Z,61.00
2018-03-14T18:45:12.835Z,61.20
2018-03-14T18:47:40.310Z,61.90
2018-03-14T18:50:07.814Z,62.40
2018-03-14T18:52:35.229Z,62.40
2018-03-14T18:55:02.681Z,62.60
2018-03-14T18:57:30.139Z,62.90
2018-03-14T18:59:57.602Z,62.90
2018-03-14T19:02:25.061Z,63.70
2018-03-14T19:04:53.280Z,63.00
2018-03-14T19:07:20.734Z,62.50
2018-03-14T19:09:48.184Z,62.20
2018-03-14T19:12:15.752Z,62.20
2018-03-14T19:14:43.196Z,63.10
2018-03-14T19:17:11.058Z,62.70
2018-03-14T19:19:38.540Z,63.30
2018-03-14T19:22:05.965Z,63.60
2018-03-14T19:24:33.426Z,63.90
2018-03-14T19:27:00.883Z,64.30
2018-03-14T19:29:28.347Z,64.30
2018-03-14T19:31:55.811Z,64.50
2018-03-14T19:34:23.269Z,64.50
2018-03-14T19:36:50.722Z,64.60
2018-03-14T19:39:18.169Z,64.90
2018-03-14T19:41:45.625Z,64.80
2018-03-14T19:44:13.129Z,64.80
2018-03-14T19:46:40.571Z,64.80
2018-03-14T19:49:08.801Z,65.00
2018-03-14T19:51:37.026Z,65.40
2018-03-14T19:54:04.501Z,65.30
2018-03-14T19:56:31.961Z,65.80
2018-03-14T19:58:59.438Z,66.10
2018-03-14T20:01:27.651Z,66.50
2018-03-14T20:03:55.137Z,66.40
2018-03-14T20:06:22.576Z,66.20
2018-03-14T20:08:50.061Z,66.20
2018-03-14T20:11:17.509Z,76.50
2018-03-14T20:13:44.984Z,79.80
2018-03-14T20:16:12.459Z,70.60
2018-03-14T20:18:40.679Z,67.10
2018-03-14T20:21:08.130Z,67.80
2018-03-14T20:23:35.577Z,67.80
2018-03-14T20:26:03.046Z,68.10
2018-03-14T20:28:30.510Z,68.70
2018-03-14T20:30:57.988Z,69.00
2018-03-14T20:33:25.418Z,68.90
2018-03-14T20:35:52.885Z,68.90
2018-03-14T20:38:20.346Z,68.80
2018-03-14T20:40:47.801Z,68.40
2018-03-14T20:43:15.258Z,67.30
2018-03-14T20:45:42.711Z,67.00
2018-03-14T20:48:10.215Z,66.70
2018-03-14T20:50:37.634Z,67.00
2018-03-14T20:53:05.100Z,67.00
2018-03-14T20:55:32.553Z,66.30
2018-03-14T20:58:00.022Z,67.20
2018-03-14T21:00:28.250Z,67.00
2018-03-14T21:02:56.503Z,68.10
2018-03-14T21:05:23.957Z,68.00
2018-03-14T21:07:51.430Z,68.40
2018-03-14T21:10:18.891Z,75.30
2018-03-14T21:12:46.357Z,65.20
2018-03-14T21:15:13.828Z,66.00
2018-03-14T21:17:41.306Z,66.80
2018-03-14T21:20:08.767Z,80.90
2018-03-14T21:22:36.235Z,69.30
2018-03-14T21:25:04.461Z,68.90
2018-03-14T21:27:31.938Z,68.80
2018-03-14T21:29:59.408Z,68.70
2018-03-14T21:32:27.660Z,66.70
2018-03-14T21:34:55.130Z,66.70
2018-03-14T21:37:22.602Z,66.70
2018-03-14T21:39:50.825Z,67.20
2018-03-14T21:42:18.447Z,67.10
2018-03-14T21:44:46.684Z,67.00
2018-03-14T21:47:14.161Z,66.90
2018-03-14T21:49:41.619Z,65.70
2018-03-14T21:52:09.086Z,64.90
2018-03-14T21:54:37.316Z,64.50
2018-03-14T21:57:17.640Z,64.30
2018-03-14T21:59:45.020Z,64.20
2018-03-14T22:02:12.492Z,64.10
2018-03-14T22:04:39.942Z,64.40
2018-03-14T22:07:07.420Z,64.70
2018-03-14T22:09:34.871Z,64.70
2018-03-14T22:12:02.446Z,63.90
2018-03-14T22:14:29.801Z,64.50
2018-03-14T22:16:57.265Z,65.40
2018-03-14T22:19:24.732Z,75.30
2018-03-14T22:21:52.963Z,65.90
2018-03-14T22:24:21.185Z,66.20
2018-03-14T22:26:49.441Z,67.50
2018-03-14T22:29:17.287Z,66.50
2018-03-14T22:31:44.759Z,67.00
2018-03-14T22:34:12.219Z,67.80
2018-03-14T22:36:39.741Z,66.90
2018-03-14T22:39:07.201Z,67.00
2018-03-14T22:41:34.891Z,67.10
2018-03-14T22:44:02.346Z,66.90
2018-03-14T22:46:29.812Z,66.20
2018-03-14T22:48:57.323Z,65.80
2018-03-14T22:51:24.766Z,66.10
2018-03-14T22:53:52.210Z,66.80
2018-03-14T22:56:20.425Z,66.40
2018-03-14T22:58:47.868Z,66.20
2018-03-14T23:01:15.335Z,66.00
2018-03-14T23:03:42.785Z,66.00
2018-03-14T23:06:10.234Z,66.20
2018-03-14T23:08:37.684Z,66.60
2018-03-14T23:11:05.143Z,67.20
2018-03-14T23:13:32.587Z,67.80
2018-03-14T23:16:00.049Z,85.10
2018-03-14T23:18:27.494Z,67.30
2018-03-14T23:20:54.945Z,72.00
2018-03-14T23:23:23.195Z,67.30
2018-03-14T23:25:50.658Z,67.60
2018-03-14T23:28:18.944Z,66.50
2018-03-14T23:30:46.790Z,67.50
2018-03-14T23:33:14.263Z,66.50
2018-03-14T23:35:42.484Z,66.80
2018-03-14T23:38:09.937Z,66.50
2018-03-14T23:40:37.392Z,66.60
2018-03-14T23:43:04.863Z,66.70
2018-03-14T23:45:32.305Z,66.90
2018-03-14T23:47:59.769Z,67.40
2018-03-14T23:50:27.229Z,67.50
2018-03-14T23:52:54.688Z,67.40
2018-03-14T23:55:22.130Z,67.10
2018-03-14T23:57:49.604Z,66.50
